Time;durP1;ratioP1;P1;durP2;ratioP2;P2;SDS_P1;SDS_P2;PMS_P1;PMS_P2;Temp;Humidity;BMP_temperature;BMP_pressure;BME280_temperature;BME280_humidity;BME280_pressure;Samples;Min_cycle;Max_cycle;Signal;HPM_P1;HPM_P2
2023/01/29 00:00:12;;;;;;;23.40;12.30;;;;;;;-128.00;-1.00;-1.00;102291;1259;1010267;-51
2023/01/29 00:02:40;;;;;;;26.30;11.40;;;;;;;-128.00;-1.00;-1.00;102390;1260;1010713;-51
2023/01/29 00:05:08;;;;;;;21.40;10.70;;;;;;;-128.00;-1.00;-1.00;102139;1257;1003834;-51
2023/01/29 00:07:55;;;;;;;21.50;10.10;;;;;;;-128.00;-1.00;-1.00;102111;1257;1012828;-51
2023/01/29 00:10:24;;;;;;;20.20;9.50;;;;;;;-128.00;-1.00;-1.00;102238;1256;1013366;-51
2023/01/29 00:12:52;;;;;;;22.30;11.50;;;;;;;-128.00;-1.00;-1.00;104257;1256;1010786;-51
2023/01/29 00:15:20;;;;;;;23.10;10.00;;;;;;;-128.00;-1.00;-1.00;102070;1259;1010933;-51
2023/01/29 00:17:48;;;;;;;22.30;11.60;;;;;;;-128.00;-1.00;-1.00;102044;1257;1002575;-51
2023/01/29 00:20:16;;;;;;;21.10;11.00;;;;;;;-128.00;-1.00;-1.00;102379;1257;1002783;-50
2023/01/29 00:22:45;;;;;;;24.40;11.40;;;;;;;-128.00;-1.00;-1.00;103191;1260;1012954;-51
2023/01/29 00:25:13;;;;;;;29.30;13.20;;;;;;;-128.00;-1.00;-1.00;102226;1257;1003048;-50
2023/01/29 00:27:42;;;;;;;22.70;11.10;;;;;;;-128.00;-1.00;-1.00;102260;1256;1003291;-50
2023/01/29 00:30:11;;;;;;;25.90;11.80;;;;;;;-128.00;-1.00;-1.00;102406;1257;1013411;-51
2023/01/29 00:32:40;;;;;;;23.10;11.90;;;;;;;-128.00;-1.00;-1.00;103665;1257;1013066;-51
2023/01/29 00:35:08;;;;;;;26.50;11.20;;;;;;;-128.00;-1.00;-1.00;102228;1257;1013702;-51
2023/01/29 00:37:36;;;;;;;27.90;13.10;;;;;;;-128.00;-1.00;-1.00;102561;1257;1009946;-51
2023/01/29 00:40:05;;;;;;;27.90;14.10;;;;;;;-128.00;-1.00;-1.00;102295;1259;1002649;-51
2023/01/29 00:45:20;;;;;;;28.10;12.40;;;;;;;-128.00;-1.00;-1.00;103307;1259;1012589;-51
2023/01/29 00:47:48;;;;;;;28.30;13.30;;;;;;;-128.00;-1.00;-1.00;105769;1257;1002621;-51
2023/01/29 00:50:16;;;;;;;23.30;10.90;;;;;;;-128.00;-1.00;-1.00;103666;1260;1002940;-50
2023/01/29 00:52:47;;;;;;;25.60;11.90;;;;;;;-128.00;-1.00;-1.00;104763;1254;1012950;-51
2023/01/29 00:55:16;;;;;;;28.40;11.90;;;;;;;-128.00;-1.00;-1.00;104908;1259;1012545;-51
2023/01/29 00:57:44;;;;;;;23.40;11.20;;;;;;;-128.00;-1.00;-1.00;102254;1257;1003328;-51
2023/01/29 01:00:14;;;;;;;26.80;12.40;;;;;;;-128.00;-1.00;-1.00;102313;1259;1012504;-51
2023/01/29 01:05:30;;;;;;;28.40;12.90;;;;;;;-128.00;-1.00;-1.00;106360;1256;1011126;-51
2023/01/29 01:07:58;;;;;;;29.60;13.20;;;;;;;-128.00;-1.00;-1.00;106234;1254;1012756;-52
2023/01/29 01:10:29;;;;;;;25.60;12.00;;;;;;;-128.00;-1.00;-1.00;106367;1254;1002268;-52
2023/01/29 01:12:58;;;;;;;32.20;14.70;;;;;;;-128.00;-1.00;-1.00;106391;1256;1014074;-52
2023/01/29 01:15:28;;;;;;;28.70;13.90;;;;;;;-128.00;-1.00;-1.00;106383;1258;1010792;-52
2023/01/29 01:17:58;;;;;;;30.50;14.20;;;;;;;-128.00;-1.00;-1.00;106316;1256;1010995;-52
2023/01/29 01:20:28;;;;;;;24.70;12.60;;;;;;;-128.00;-1.00;-1.00;106405;1259;1012705;-51
2023/01/29 01:22:56;;;;;;;27.90;13.70;;;;;;;-128.00;-1.00;-1.00;106391;1255;1011819;-52
2023/01/29 01:25:24;;;;;;;25.40;13.30;;;;;;;-128.00;-1.00;-1.00;106453;1254;1013009;-52
2023/01/29 01:27:53;;;;;;;24.70;13.60;;;;;;;-128.00;-1.00;-1.00;106438;1256;1011034;-52
2023/01/29 01:30:21;;;;;;;28.20;12.80;;;;;;;-128.00;-1.00;-1.00;106477;1254;1010797;-51
2023/01/29 01:32:50;;;;;;;29.00;13.20;;;;;;;-128.00;-1.00;-1.00;106450;1256;1012958;-51
2023/01/29 01:35:17;;;;;;;29.80;13.90;;;;;;;-128.00;-1.00;-1.00;106456;1256;1012618;-51
2023/01/29 01:37:45;;;;;;;27.80;12.80;;;;;;;-128.00;-1.00;-1.00;103687;1256;1002566;-51
2023/01/29 01:40:18;;;;;;;28.00;11.70;;;;;;;-128.00;-1.00;-1.00;102421;1258;1002930;-51
2023/01/29 01:42:50;;;;;;;22.00;10.00;;;;;;;-128.00;-1.00;-1.00;102286;1257;1011820;-51
2023/01/29 01:45:30;;;;;;;21.80;9.60;;;;;;;-128.00;-1.00;-1.00;102205;1258;1012349;-50
2023/01/29 01:48:11;;;;;;;21.00;9.00;;;;;;;-128.00;-1.00;-1.00;102308;1258;1012883;-50
2023/01/29 01:50:52;;;;;;;23.40;9.70;;;;;;;-128.00;-1.00;-1.00;102711;1260;1013082;-51
2023/01/29 01:53:29;;;;;;;18.90;9.20;;;;;;;-128.00;-1.00;-1.00;102537;1254;1011032;-50
2023/01/29 01:56:00;;;;;;;21.60;9.10;;;;;;;-128.00;-1.00;-1.00;103574;1257;1011330;-51
2023/01/29 01:58:46;;;;;;;24.20;10.40;;;;;;;-128.00;-1.00;-1.00;102176;1262;1012666;-50
2023/01/29 02:01:15;;;;;;;21.80;9.60;;;;;;;-128.00;-1.00;-1.00;104041;1259;1013027;-51
2023/01/29 02:09:34;;;;;;;25.20;10.70;;;;;;;-128.00;-1.00;-1.00;102144;1259;1011515;-51
2023/01/29 02:12:08;;;;;;;21.20;9.70;;;;;;;-128.00;-1.00;-1.00;102392;1257;1012693;-50
2023/01/29 02:14:38;;;;;;;19.00;9.10;;;;;;;-128.00;-1.00;-1.00;102325;1257;1015879;-51
2023/01/29 02:17:07;;;;;;;18.90;9.20;;;;;;;-128.00;-1.00;-1.00;104498;1257;1012556;-50
2023/01/29 02:19:55;;;;;;;17.10;8.60;;;;;;;-128.00;-1.00;-1.00;103797;1257;1010439;-51
2023/01/29 02:22:46;;;;;;;22.30;8.80;;;;;;;-128.00;-1.00;-1.00;102061;1259;1011497;-50
2023/01/29 02:25:32;;;;;;;16.70;7.60;;;;;;;-128.00;-1.00;-1.00;102101;1257;1012758;-50
2023/01/29 02:28:13;;;;;;;17.90;6.80;;;;;;;-128.00;-1.00;-1.00;102198;1259;1012294;-50
2023/01/29 02:30:52;;;;;;;16.00;6.30;;;;;;;-128.00;-1.00;-1.00;102355;1257;1013100;-49
2023/01/29 02:33:48;;;;;;;16.70;7.30;;;;;;;-128.00;-1.00;-1.00;102723;1257;1010811;-50
2023/01/29 02:36:23;;;;;;;18.30;8.40;;;;;;;-128.00;-1.00;-1.00;102287;1259;1011166;-48
2023/01/29 02:39:14;;;;;;;24.40;9.90;;;;;;;-128.00;-1.00;-1.00;102843;1255;1012481;-50
2023/01/29 02:41:57;;;;;;;18.00;8.40;;;;;;;-128.00;-1.00;-1.00;104498;1260;1013336;-50
2023/01/29 02:44:39;;;;;;;19.30;9.10;;;;;;;-128.00;-1.00;-1.00;102335;1261;1013669;-50
2023/01/29 02:47:18;;;;;;;18.50;8.30;;;;;;;-128.00;-1.00;-1.00;102262;1258;1011249;-49
2023/01/29 02:49:49;;;;;;;18.60;9.00;;;;;;;-128.00;-1.00;-1.00;102285;1262;1010997;-49
2023/01/29 02:52:22;;;;;;;24.80;9.80;;;;;;;-128.00;-1.00;-1.00;102256;1259;1013200;-50
2023/01/29 02:55:14;;;;;;;18.00;7.60;;;;;;;-128.00;-1.00;-1.00;102399;1261;1012894;-49
2023/01/29 02:57:43;;;;;;;24.90;11.30;;;;;;;-128.00;-1.00;-1.00;103024;1259;1012459;-50
2023/01/29 03:00:17;;;;;;;16.20;8.60;;;;;;;-128.00;-1.00;-1.00;102102;1257;1010124;-50
2023/01/29 03:03:24;;;;;;;16.60;6.60;;;;;;;-128.00;-1.00;-1.00;103994;1254;1010634;-51
2023/01/29 03:06:10;;;;;;;17.50;7.00;;;;;;;-128.00;-1.00;-1.00;102070;1257;1012964;-50
2023/01/29 03:08:49;;;;;;;15.80;7.20;;;;;;;-128.00;-1.00;-1.00;102006;1259;1013063;-50
2023/01/29 03:11:17;;;;;;;14.80;7.10;;;;;;;-128.00;-1.00;-1.00;102163;1257;1012915;-50
2023/01/29 03:13:57;;;;;;;18.30;8.30;;;;;;;-128.00;-1.00;-1.00;102182;1262;1010503;-51
2023/01/29 03:16:29;;;;;;;16.50;7.60;;;;;;;-128.00;-1.00;-1.00;103038;1256;1011626;-51
2023/01/29 03:19:02;;;;;;;14.80;7.90;;;;;;;-128.00;-1.00;-1.00;102185;1254;1013055;-50
2023/01/29 03:21:58;;;;;;;17.00;8.50;;;;;;;-128.00;-1.00;-1.00;103008;1256;1012413;-51
2023/01/29 03:33:10;;;;;;;22.40;8.60;;;;;;;-128.00;-1.00;-1.00;103357;1257;1013051;-51
2023/01/29 03:35:47;;;;;;;19.70;10.50;;;;;;;-128.00;-1.00;-1.00;102466;1262;1013383;-51
2023/01/29 03:38:15;;;;;;;23.30;9.50;;;;;;;-128.00;-1.00;-1.00;102471;1257;1012188;-50
2023/01/29 03:40:50;;;;;;;19.00;9.60;;;;;;;-128.00;-1.00;-1.00;102775;1260;1009695;-51
2023/01/29 03:43:39;;;;;;;21.50;9.10;;;;;;;-128.00;-1.00;-1.00;102842;1254;1011165;-51
2023/01/29 03:46:17;;;;;;;21.00;9.10;;;;;;;-128.00;-1.00;-1.00;102524;1262;1013013;-51
2023/01/29 03:49:02;;;;;;;21.30;9.90;;;;;;;-128.00;-1.00;-1.00;102331;1257;1012533;-50
2023/01/29 03:51:34;;;;;;;18.00;8.80;;;;;;;-128.00;-1.00;-1.00;102404;1262;1013866;-50
2023/01/29 03:54:36;;;;;;;16.70;7.90;;;;;;;-128.00;-1.00;-1.00;104525;1259;1010374;-51
2023/01/29 03:57:18;;;;;;;16.10;8.10;;;;;;;-128.00;-1.00;-1.00;106159;1255;1010795;-51
2023/01/29 03:59:55;;;;;;;18.70;9.50;;;;;;;-128.00;-1.00;-1.00;106176;1256;1013319;-52
2023/01/29 04:02:51;;;;;;;18.80;8.50;;;;;;;-128.00;-1.00;-1.00;106150;1254;1012266;-52
2023/01/29 04:05:20;;;;;;;16.70;8.40;;;;;;;-128.00;-1.00;-1.00;106191;1257;1012255;-51
2023/01/29 04:08:07;;;;;;;21.00;9.20;;;;;;;-128.00;-1.00;-1.00;106119;1255;1009913;-51
2023/01/29 04:10:35;;;;;;;17.10;8.60;;;;;;;-128.00;-1.00;-1.00;106201;1256;1011811;-52
2023/01/29 04:13:06;;;;;;;18.60;8.60;;;;;;;-128.00;-1.00;-1.00;106102;1257;1013724;-52
2023/01/29 04:15:39;;;;;;;19.70;8.80;;;;;;;-128.00;-1.00;-1.00;106157;1256;1013007;-51
2023/01/29 04:18:08;;;;;;;17.50;9.20;;;;;;;-128.00;-1.00;-1.00;106231;1254;1012142;-52
2023/01/29 04:20:50;;;;;;;15.20;8.50;;;;;;;-128.00;-1.00;-1.00;106139;1256;1010209;-51
2023/01/29 04:23:22;;;;;;;17.60;8.90;;;;;;;-128.00;-1.00;-1.00;104968;1257;1002219;-51
2023/01/29 04:26:05;;;;;;;19.80;9.10;;;;;;;-128.00;-1.00;-1.00;102244;1257;1017580;-50
2023/01/29 04:29:14;;;;;;;16.20;8.30;;;;;;;-128.00;-1.00;-1.00;102129;1261;1011899;-51
2023/01/29 04:32:06;;;;;;;18.60;8.80;;;;;;;-128.00;-1.00;-1.00;106198;1257;1012698;-52
2023/01/29 04:34:39;;;;;;;21.30;8.90;;;;;;;-128.00;-1.00;-1.00;106143;1257;1010983;-52
2023/01/29 04:37:19;;;;;;;19.10;9.10;;;;;;;-128.00;-1.00;-1.00;103126;1257;1012405;-50
2023/01/29 04:39:55;;;;;;;15.30;7.20;;;;;;;-128.00;-1.00;-1.00;101837;1257;1013499;-51
2023/01/29 04:42:36;;;;;;;14.40;7.90;;;;;;;-128.00;-1.00;-1.00;106150;1255;1011768;-52
2023/01/29 04:45:15;;;;;;;19.20;8.20;;;;;;;-128.00;-1.00;-1.00;106347;1254;1013207;-52
2023/01/29 04:48:12;;;;;;;14.90;8.70;;;;;;;-128.00;-1.00;-1.00;101931;1259;1010541;-51
2023/01/29 04:51:07;;;;;;;14.70;7.10;;;;;;;-128.00;-1.00;-1.00;102207;1256;1010805;-51
2023/01/29 04:53:47;;;;;;;15.00;6.00;;;;;;;-128.00;-1.00;-1.00;102604;1259;1012783;-51
2023/01/29 04:56:17;;;;;;;21.70;8.40;;;;;;;-128.00;-1.00;-1.00;103013;1260;1013054;-51
2023/01/29 04:59:16;;;;;;;17.30;8.20;;;;;;;-128.00;-1.00;-1.00;103200;1260;1013241;-51
2023/01/29 05:01:44;;;;;;;20.80;10.30;;;;;;;-128.00;-1.00;-1.00;102280;1258;1010824;-51
2023/01/29 05:04:13;;;;;;;17.00;9.40;;;;;;;-128.00;-1.00;-1.00;103021;1259;1002656;-51
2023/01/29 05:06:41;;;;;;;21.80;10.80;;;;;;;-128.00;-1.00;-1.00;102338;1262;1012836;-51
2023/01/29 05:09:09;;;;;;;23.00;10.70;;;;;;;-128.00;-1.00;-1.00;102330;1260;1002675;-51
2023/01/29 05:11:37;;;;;;;29.10;11.80;;;;;;;-128.00;-1.00;-1.00;102677;1261;1002887;-51
2023/01/29 05:14:06;;;;;;;22.90;10.80;;;;;;;-128.00;-1.00;-1.00;102270;1259;1003338;-51
2023/01/29 05:16:43;;;;;;;25.50;10.80;;;;;;;-128.00;-1.00;-1.00;102219;1259;1011257;-51
2023/01/29 05:19:13;;;;;;;20.80;10.00;;;;;;;-128.00;-1.00;-1.00;102195;1254;1014016;-51
2023/01/29 05:21:43;;;;;;;21.10;10.30;;;;;;;-128.00;-1.00;-1.00;101918;1260;1012459;-51
2023/01/29 05:24:19;;;;;;;18.80;9.20;;;;;;;-128.00;-1.00;-1.00;102191;1257;1012988;-51
2023/01/29 05:29:40;;;;;;;19.50;9.80;;;;;;;-128.00;-1.00;-1.00;102477;1255;1011416;-51
2023/01/29 05:32:08;;;;;;;19.70;10.10;;;;;;;-128.00;-1.00;-1.00;101996;1254;1012623;-52
2023/01/29 05:34:36;;;;;;;22.80;10.20;;;;;;;-128.00;-1.00;-1.00;103420;1254;1011999;-52
2023/01/29 05:37:05;;;;;;;20.80;8.50;;;;;;;-128.00;-1.00;-1.00;102311;1260;1003376;-51
2023/01/29 05:39:32;;;;;;;18.10;9.40;;;;;;;-128.00;-1.00;-1.00;102456;1259;1002811;-52
2023/01/29 05:42:00;;;;;;;23.60;9.60;;;;;;;-128.00;-1.00;-1.00;102377;1259;1002582;-52
2023/01/29 05:44:28;;;;;;;21.50;9.00;;;;;;;-128.00;-1.00;-1.00;103388;1259;1004960;-52
2023/01/29 05:46:56;;;;;;;22.20;9.60;;;;;;;-128.00;-1.00;-1.00;102494;1259;1002547;-51
2023/01/29 05:49:24;;;;;;;25.10;12.00;;;;;;;-128.00;-1.00;-1.00;102443;1260;1003162;-51
2023/01/29 05:51:52;;;;;;;20.90;10.70;;;;;;;-128.00;-1.00;-1.00;102528;1259;1003148;-51
2023/01/29 05:54:20;;;;;;;26.00;10.90;;;;;;;-128.00;-1.00;-1.00;103900;1260;1002496;-51
2023/01/29 05:56:48;;;;;;;21.30;11.10;;;;;;;-128.00;-1.00;-1.00;102469;1259;1002635;-51
2023/01/29 05:59:16;;;;;;;23.60;11.50;;;;;;;-128.00;-1.00;-1.00;102429;1260;1003277;-50
2023/01/29 06:01:44;;;;;;;26.70;13.00;;;;;;;-128.00;-1.00;-1.00;102416;1259;1003995;-51
2023/01/29 06:04:12;;;;;;;23.70;12.50;;;;;;;-128.00;-1.00;-1.00;104685;1259;1002274;-51
2023/01/29 06:06:45;;;;;;;21.70;11.40;;;;;;;-128.00;-1.00;-1.00;102367;1257;1011715;-50
2023/01/29 06:09:13;;;;;;;20.30;10.80;;;;;;;-128.00;-1.00;-1.00;102553;1259;1016358;-50
2023/01/29 06:14:22;;;;;;;20.90;10.20;;;;;;;;;;101990;1292;602264;-50
2023/01/29 06:16:50;;;;;;;22.60;10.70;;;;;;;;;;104208;1270;59493;-51
2023/01/29 06:19:19;;;;;;;25.00;11.50;;;;;;;;;;104400;1267;59193;-51
2023/01/29 06:21:47;;;;;;;17.80;9.60;;;;;;;;;;105635;1266;60535;-51
2023/01/29 06:24:15;;;;;;;19.80;9.20;;;;;;;;;;105151;1269;59053;-51
2023/01/29 06:26:43;;;;;;;19.50;8.40;;;;;;;;;;103982;1266;61103;-51
2023/01/29 06:29:11;;;;;;;16.60;8.50;;;;;;;;;;104435;1263;100835;-51
2023/01/29 06:31:39;;;;;;;17.90;8.80;;;;;;;;;;104623;1269;59058;-49
2023/01/29 06:34:07;;;;;;;17.30;9.10;;;;;;;;;;105321;1264;60579;-52
2023/01/29 06:36:35;;;;;;;15.90;7.80;;;;;;;;;;105852;1256;58902;-52
2023/01/29 06:39:03;;;;;;;16.70;8.00;;;;;;;;;;105085;1254;60764;-51
2023/01/29 06:41:32;;;;;;;20.40;10.50;;;;;;;;;;105476;1256;59760;-51
2023/01/29 06:43:59;;;;;;;22.40;10.20;;;;;;;;;;105336;1256;59640;-51
2023/01/29 06:46:28;;;;;;;19.80;10.40;;;;;;;;;;106068;1254;61268;-51
2023/01/29 06:48:59;;;;;;;26.20;11.90;;;;;;;;;;105255;1256;59635;-52
2023/01/29 06:51:28;;;;;;;23.40;12.40;;;;;;;;;;105145;1256;60812;-50
2023/01/29 06:53:56;;;;;;;23.80;13.00;;;;;;;;;;105144;1257;59676;-52
2023/01/29 06:56:24;;;;;;;26.80;12.70;;;;;;;;;;107285;1254;59116;-52
2023/01/29 06:58:53;;;;;;;24.40;12.50;;;;;;;;;;105107;1254;61265;-51
2023/01/29 07:01:20;;;;;;;25.60;12.80;;;;;;;;;;105039;1256;59669;-52
2023/01/29 07:04:02;;;;;;;21.00;11.10;;;;;;;;;;105097;1255;60906;-51
2023/01/29 07:06:30;;;;;;;26.60;13.30;;;;;;;;;;105200;1259;59724;-51
2023/01/29 07:08:58;;;;;;;25.10;13.10;;;;;;;;;;109090;1254;57861;-51
2023/01/29 07:11:27;;;;;;;25.20;12.10;;;;;;;;;;106377;1256;61386;-51
2023/01/29 07:13:55;;;;;;;26.40;13.70;;;;;;;;;;107201;1255;60703;-51
2023/01/29 07:16:25;;;;;;;27.50;13.60;;;;;;;;;;105414;1253;60984;-51
2023/01/29 07:18:53;;;;;;;29.40;13.90;;;;;;;;;;105245;1256;59756;-50
2023/01/29 07:21:21;;;;;;;34.40;15.40;;;;;;;;;;105668;1256;59650;-51
2023/01/29 07:23:48;;;;;;;28.40;15.40;;;;;;;;;;105694;1256;61309;-51
2023/01/29 07:26:16;;;;;;;29.00;14.10;;;;;;;;;;105236;1256;59516;-50
2023/01/29 07:28:44;;;;;;;32.50;14.90;;;;;;;;;;108479;1256;60902;-51
2023/01/29 07:31:13;;;;;;;25.70;13.80;;;;;;;;;;106054;1257;59761;-51
2023/01/29 07:33:43;;;;;;;27.40;14.10;;;;;;;;;;109206;1252;57493;-51
2023/01/29 07:36:11;;;;;;;28.00;15.20;;;;;;;;;;109291;1254;61652;-51
2023/01/29 07:38:39;;;;;;;28.90;15.00;;;;;;;;;;109234;1256;57606;-51
2023/01/29 07:41:06;;;;;;;27.10;13.20;;;;;;;;;;109357;1254;59595;-51
2023/01/29 07:43:34;;;;;;;26.50;14.20;;;;;;;;;;109219;1253;57638;-52
2023/01/29 07:46:02;;;;;;;28.00;14.60;;;;;;;;;;109316;1256;57770;-51
2023/01/29 07:48:32;;;;;;;32.70;16.40;;;;;;;;;;107527;1256;61432;-51
2023/01/29 07:51:01;;;;;;;27.40;14.30;;;;;;;;;;105592;1256;60704;-52
2023/01/29 07:53:29;;;;;;;27.40;14.10;;;;;;;;;;109114;1254;61955;-52
2023/01/29 07:55:57;;;;;;;25.70;13.90;;;;;;;;;;109226;1254;57771;-53
2023/01/29 07:58:24;;;;;;;30.00;14.90;;;;;;;;;;109190;1254;57768;-53
2023/01/29 08:00:52;;;;;;;27.00;13.50;;;;;;;;;;109117;1254;61441;-52
2023/01/29 08:03:20;;;;;;;24.60;14.00;;;;;;;;;;109296;1253;57794;-52
2023/01/29 08:05:48;;;;;;;28.70;14.40;;;;;;;;;;109198;1254;59856;-53
2023/01/29 08:08:18;;;;;;;28.60;14.60;;;;;;;;;;109277;1253;58691;-53
2023/01/29 08:10:46;;;;;;;31.80;15.10;;;;;;;;;;109308;1254;57343;-53
2023/01/29 08:13:14;;;;;;;25.80;15.00;;;;;;;;;;109338;1254;60233;-53
2023/01/29 08:15:43;;;;;;;29.00;14.80;;;;;;;;;;109296;1254;57618;-53
2023/01/29 08:18:12;;;;;;;28.20;15.10;;;;;;;;;;109248;1251;59547;-52
2023/01/29 08:20:41;;;;;;;26.90;14.10;;;;;;;;;;109190;1253;57946;-52
2023/01/29 08:23:13;;;;;;;24.90;14.10;;;;;;;;;;109201;1254;60595;-52
2023/01/29 08:25:42;;;;;;;28.40;15.70;;;;;;;;;;109114;1254;61316;-53
2023/01/29 08:28:11;;;;;;;26.30;15.20;;;;;;;;;;109215;1254;57645;-53
2023/01/29 08:30:39;;;;;;;26.70;15.20;;;;;;;;;;109229;1254;59671;-53
2023/01/29 08:33:09;;;;;;;28.50;15.60;;;;;;;;;;107823;1256;59845;-52
2023/01/29 08:35:37;;;;;;;32.60;17.70;;;;;;;;;;104935;1254;59622;-52
2023/01/29 08:38:05;;;;;;;33.60;16.80;;;;;;;;;;104904;1254;61440;-51
2023/01/29 08:40:33;;;;;;;29.90;16.20;;;;;;;;;;104936;1253;59660;-52
2023/01/29 08:43:02;;;;;;;31.60;15.70;;;;;;;;;;104739;1256;62625;-52
2023/01/29 08:45:33;;;;;;;27.60;16.00;;;;;;;;;;108561;1253;58518;-52
2023/01/29 08:48:01;;;;;;;26.80;14.70;;;;;;;;;;104951;1255;59650;-52
2023/01/29 08:50:30;;;;;;;26.90;14.70;;;;;;;;;;104920;1252;62131;-51
2023/01/29 08:52:58;;;;;;;26.60;14.30;;;;;;;;;;105318;1257;59756;-52
2023/01/29 08:55:26;;;;;;;28.70;15.30;;;;;;;;;;109172;1253;60526;-53
2023/01/29 08:57:56;;;;;;;25.40;14.20;;;;;;;;;;105379;1251;59627;-52
2023/01/29 09:00:24;;;;;;;31.00;14.40;;;;;;;;;;109235;1256;57748;-53
2023/01/29 09:02:53;;;;;;;29.00;13.50;;;;;;;;;;107070;1256;61379;-52
2023/01/29 09:05:21;;;;;;;28.50;14.20;;;;;;;;;;105563;1256;59553;-52
2023/01/29 09:07:49;;;;;;;25.60;14.40;;;;;;;;;;108129;1256;60809;-52
2023/01/29 09:10:19;;;;;;;26.80;14.00;;;;;;;;;;105600;1257;59778;-52
2023/01/29 09:12:47;;;;;;;27.80;14.70;;;;;;;;;;105097;1258;59698;-52
2023/01/29 09:15:16;;;;;;;28.80;13.70;;;;;;;;;;105243;1255;61596;-52
2023/01/29 09:17:45;;;;;;;29.00;16.40;;;;;;;;;;107397;1256;58819;-52
2023/01/29 09:20:13;;;;;;;25.90;14.30;;;;;;;;;;105949;1256;60735;-51
2023/01/29 09:22:41;;;;;;;29.00;14.30;;;;;;;;;;104893;1256;59757;-52
2023/01/29 09:25:09;;;;;;;25.10;12.90;;;;;;;;;;108247;1255;57824;-51
2023/01/29 09:27:37;;;;;;;26.80;14.00;;;;;;;;;;105199;1255;61443;-52
2023/01/29 09:30:05;;;;;;;27.20;15.00;;;;;;;;;;105217;1257;59688;-52
2023/01/29 09:32:33;;;;;;;23.00;13.00;;;;;;;;;;105176;1254;59644;-51
2023/01/29 09:35:23;;;;;;;23.20;12.60;;;;;;;;;;105023;1266;60442;-52
2023/01/29 09:37:51;;;;;;;24.70;13.20;;;;;;;;;;106070;1254;59585;-51
2023/01/29 09:40:25;;;;;;;25.60;13.40;;;;;;;;;;105328;1257;61302;-50
2023/01/29 09:42:54;;;;;;;25.50;13.40;;;;;;;;;;105432;1256;60212;-52
2023/01/29 09:45:23;;;;;;;22.90;11.90;;;;;;;;;;105672;1256;60970;-52
2023/01/29 09:48:01;;;;;;;22.80;12.30;;;;;;;;;;105096;1256;60344;-51
2023/01/29 09:50:31;;;;;;;23.40;12.70;;;;;;;;;;105463;1254;61527;-51
2023/01/29 09:53:18;;;;;;;23.80;13.50;;;;;;;;;;105658;1257;61385;-51
2023/01/29 09:55:49;;;;;;;23.00;12.00;;;;;;;;;;105061;1256;59750;-51
2023/01/29 09:58:18;;;;;;;23.60;13.00;;;;;;;;;;104967;1256;60814;-52
2023/01/29 10:00:46;;;;;;;22.60;11.30;;;;;;;;;;104868;1254;59718;-51
2023/01/29 10:03:19;;;;;;;20.80;11.20;;;;;;;;;;105118;1254;59628;-51
2023/01/29 10:05:56;;;;;;;19.20;11.30;;;;;;;;;;105663;1256;63013;-51
2023/01/29 10:08:26;;;;;;;21.10;11.70;;;;;;;;;;104869;1256;59651;-51
2023/01/29 10:11:18;;;;;;;20.80;10.60;;;;;;;;;;104893;1256;62506;-51
2023/01/29 10:14:05;;;;;;;19.80;10.90;;;;;;;;;;104868;1254;59762;-51
2023/01/29 10:16:48;;;;;;;20.10;10.60;;;;;;;;;;104909;1254;59643;-51
2023/01/29 10:19:19;;;;;;;28.50;15.10;;;;;;;;;;105836;1254;60282;-52
2023/01/29 10:22:02;;;;;;;16.80;10.20;;;;;;;;;;104950;1257;59491;-51
2023/01/29 10:24:38;;;;;;;16.30;8.70;;;;;;;;;;105027;1255;60538;-51
2023/01/29 10:27:15;;;;;;;18.70;9.10;;;;;;;;;;105750;1257;61775;-52
2023/01/29 10:29:45;;;;;;;15.50;8.20;;;;;;;;;;105188;1253;60434;-52
2023/01/29 10:32:55;;;;;;;13.90;7.60;;;;;;;-26.26;79.80;80915.20;101276;1292;1002771;-52
2023/01/29 10:35:40;;;;;;;15.40;8.40;;;;;;;-128.00;-1.00;-1.00;105592;1266;1011274;-52
2023/01/29 10:38:33;;;;;;;16.80;9.70;;;;;;;-128.00;-1.00;-1.00;103668;1271;1010786;-52
2023/01/29 10:41:10;;;;;;;20.40;12.40;;;;;;;-128.00;-1.00;-1.00;105563;1266;1012586;-53
2023/01/29 10:43:53;;;;;;;17.70;9.30;;;;;;;-128.00;-1.00;-1.00;105675;1266;1012020;-53
2023/01/29 10:46:44;;;;;;;15.40;8.20;;;;;;;-128.00;-1.00;-1.00;105580;1263;1012471;-53
2023/01/29 10:50:07;;;;;;;16.40;7.80;;;;;;;-128.00;-1.00;-1.00;105742;1263;1010310;-53
2023/01/29 10:52:50;;;;;;;14.60;7.80;;;;;;;-128.00;-1.00;-1.00;101400;1267;1011225;-51
2023/01/29 10:55:30;;;;;;;13.50;7.50;;;;;;;-128.00;-1.00;-1.00;101591;1263;1012286;-51
2023/01/29 10:58:08;;;;;;;12.70;7.40;;;;;;;-128.00;-1.00;-1.00;101707;1266;1013085;-51
2023/01/29 11:00:40;;;;;;;18.10;8.50;;;;;;;-128.00;-1.00;-1.00;103391;1263;1012784;-51
2023/01/29 11:03:23;;;;;;;11.70;7.30;;;;;;;-128.00;-1.00;-1.00;102616;1266;1010905;-52
2023/01/29 11:05:58;;;;;;;13.10;7.70;;;;;;;-128.00;-1.00;-1.00;102071;1263;1011269;-51
2023/01/29 11:08:45;;;;;;;;;;;;;;;-128.00;-1.00;-1.00;101847;1263;1013107;-51
2023/01/29 11:11:16;;;;;;;18.10;8.20;;;;;;;-128.00;-1.00;-1.00;102383;1267;1012712;-49
2023/01/29 11:13:59;;;;;;;13.90;8.00;;;;;;;-128.00;-1.00;-1.00;102209;1263;1013227;-51
2023/01/29 11:16:28;;;;;;;14.40;7.60;;;;;;;-128.00;-1.00;-1.00;102270;1263;1010613;-51
2023/01/29 11:18:58;;;;;;;11.80;7.50;;;;;;;-128.00;-1.00;-1.00;101386;1267;1011806;-51
2023/01/29 11:21:27;;;;;;;13.80;7.40;;;;;;;-128.00;-1.00;-1.00;102174;1263;1012858;-49
2023/01/29 11:24:15;;;;;;;11.30;7.10;;;;;;;-128.00;-1.00;-1.00;101263;1263;1012476;-52
2023/01/29 11:26:45;;;;;;;11.20;7.00;;;;;;;-128.00;-1.00;-1.00;101973;1263;1013398;-51
2023/01/29 11:29:33;;;;;;;12.30;6.90;;;;;;;-128.00;-1.00;-1.00;102268;1265;1010704;-51
2023/01/29 11:32:05;;;;;;;8.20;5.50;;;;;;;-128.00;-1.00;-1.00;101235;1263;1010588;-51
2023/01/29 11:34:33;;;;;;;7.70;5.80;;;;;;;-128.00;-1.00;-1.00;101320;1263;1013865;-52
2023/01/29 11:37:03;;;;;;;11.30;6.60;;;;;;;-128.00;-1.00;-1.00;103035;1269;1012849;-52
2023/01/29 11:39:31;;;;;;;9.20;6.00;;;;;;;-128.00;-1.00;-1.00;101712;1263;1013558;-52
2023/01/29 11:42:02;;;;;;;10.50;6.30;;;;;;;-128.00;-1.00;-1.00;101503;1263;1002380;-51
2023/01/29 11:44:39;;;;;;;8.30;5.00;;;;;;;-128.00;-1.00;-1.00;103877;1268;1011097;-52
2023/01/29 11:47:27;;;;;;;9.90;6.20;;;;;;;-128.00;-1.00;-1.00;101749;1263;1012892;-51
2023/01/29 11:49:56;;;;;;;10.40;6.30;;;;;;;-128.00;-1.00;-1.00;101767;1263;1012445;-51
2023/01/29 11:52:27;;;;;;;12.90;7.40;;;;;;;-128.00;-1.00;-1.00;101677;1263;1012550;-50
2023/01/29 11:54:58;;;;;;;8.60;6.30;;;;;;;-128.00;-1.00;-1.00;101739;1263;1010641;-52
2023/01/29 11:57:34;;;;;;;9.10;6.10;;;;;;;-128.00;-1.00;-1.00;101895;1263;1011986;-51
2023/01/29 12:00:26;;;;;;;11.80;6.90;;;;;;;-128.00;-1.00;-1.00;102296;1263;1012035;-51
2023/01/29 12:03:11;;;;;;;9.20;5.60;;;;;;;-128.00;-1.00;-1.00;101659;1266;1012488;-52
2023/01/29 12:05:39;;;;;;;9.50;5.70;;;;;;;-128.00;-1.00;-1.00;105004;1264;1013341;-52
2023/01/29 12:08:14;;;;;;;8.40;5.20;;;;;;;-128.00;-1.00;-1.00;102077;1263;1010703;-50
2023/01/29 12:10:42;;;;;;;9.30;5.90;;;;;;;-128.00;-1.00;-1.00;102008;1269;1010842;-52
2023/01/29 12:13:11;;;;;;;8.70;5.20;;;;;;;-128.00;-1.00;-1.00;101546;1263;1012808;-52
2023/01/29 12:15:40;;;;;;;8.70;5.60;;;;;;;-128.00;-1.00;-1.00;101961;1268;1012121;-51
2023/01/29 12:18:29;;;;;;;8.10;4.50;;;;;;;-128.00;-1.00;-1.00;102263;1258;1013163;-51
2023/01/29 12:21:02;;;;;;;9.80;5.30;;;;;;;-128.00;-1.00;-1.00;102472;1263;1010028;-51
2023/01/29 12:23:52;;;;;;;9.70;5.90;;;;;;;-128.00;-1.00;-1.00;102159;1256;1010617;-50
2023/01/29 12:26:33;;;;;;;8.50;5.50;;;;;;;-128.00;-1.00;-1.00;102092;1261;1013324;-50
2023/01/29 12:29:20;;;;;;;12.70;5.90;;;;;;;-128.00;-1.00;-1.00;102503;1257;1012547;-51
2023/01/29 12:32:23;;;;;;;7.80;5.20;;;;;;;-128.00;-1.00;-1.00;102190;1262;1012573;-51
2023/01/29 12:35:42;;;;;;;9.50;5.20;;;;;;;-128.00;-1.00;-1.00;102510;1263;1010862;-51
2023/01/29 12:38:16;;;;;;;10.20;5.40;;;;;;;-128.00;-1.00;-1.00;102217;1263;1010896;-52
2023/01/29 12:40:47;;;;;;;6.60;4.90;;;;;;;-128.00;-1.00;-1.00;102472;1262;1013135;-52
2023/01/29 12:43:16;;;;;;;7.10;4.30;;;;;;;-128.00;-1.00;-1.00;102342;1261;1012608;-52
2023/01/29 12:45:48;;;;;;;8.00;4.60;;;;;;;-128.00;-1.00;-1.00;102680;1261;1012673;-52
2023/01/29 12:48:29;;;;;;;6.70;3.90;;;;;;;-128.00;-1.00;-1.00;102882;1257;1009630;-52
2023/01/29 12:51:10;;;;;;;8.20;4.20;;;;;;;-128.00;-1.00;-1.00;102135;1262;1011086;-51
2023/01/29 12:54:00;;;;;;;6.40;3.70;;;;;;;-128.00;-1.00;-1.00;102590;1260;1013225;-51
2023/01/29 12:56:38;;;;;;;6.60;4.00;;;;;;;-128.00;-1.00;-1.00;103157;1259;1011768;-52
2023/01/29 12:59:14;;;;;;;6.60;4.60;;;;;;;-128.00;-1.00;-1.00;106191;1256;1013740;-52